Thursday, September 20, 2018, 1:24 PM GMT
Back to Local

CWFQ, Frelighsburg

Location: , , Canada Lat: 45.05
Local Time: 1:24 PM GMT (13:24 GMT) Lon: -72.833
Time Zone: GMT Elev: 498 ft

Show me the last for .
Show Coded

Time T Td Feel RH Dir Speed Gust Alt SLP Vis Weather Sky Remarks
2018-09-20 13:00 51 51 - 101 320° 2 - - 30.26 0 None
2018-09-20 12:00 53 51 - 92 310° 1 - - 30.24 0 None
2018-09-20 11:00 52 51 - 98 10° 2 - - 30.20 0 None
2018-09-20 10:00 52 51 - 96 220° 1 - - 30.18 0 None
2018-09-20 09:00 52 50 - 94 350° 1 - - 30.15 0 None
2018-09-20 08:00 52 51 - 94 - Calm - - 30.16 0 None
2018-09-20 07:00 53 49 - 88 - Calm - - 30.16 0 None
2018-09-20 06:00 53 49 - 87 290° 2 - - 30.16 0 None
2018-09-20 05:00 51 51 - 99 60° 1 - - 30.14 0 None
2018-09-20 04:00 53 50 - 91 300° 3 - - 30.16 0 None
2018-09-20 03:00 54 50 - 88 40° 2 - - 30.14 0 None
2018-09-20 02:00 54 49 - 83 20° 5 - - 30.14 0 None
2018-09-20 01:00 54 49 - 83 360° 6 - - 30.14 0 None
2018-09-20 00:00 54 51 - 89 360° 3 - - 30.13 0 None
2018-09-19 23:00 53 50 - 91 360° 3 - - 30.12 0 None
2018-09-19 22:00 55 50 - 83 360° 6 - - 30.10 0 None
2018-09-19 21:00 55 49 - 80 350° 7 - - 30.08 0 None
2018-09-19 20:00 56 49 - 78 330° 6 - - 30.08 0 None
2018-09-19 19:00 56 48 - 75 350° 7 - - 30.05 0 None
2018-09-19 18:00 55 47 - 73 360° 7 - - 30.04 0 None
2018-09-19 17:00 56 48 - 74 360° 9 - - 30.06 0 None
2018-09-19 16:00 55 47 - 75 340° 8 - - 30.05 0 None
2018-09-19 15:00 55 47 - 74 360° 10 - - 30.03 0 None
2018-09-19 14:00 53 49 - 86 320° 5 - - 30.03 0 None

Support USWX by starting your Amazon purchase here.